Time;durP1;ratioP1;P1;durP2;ratioP2;P2;SDS_P1;SDS_P2;PMS_P1;PMS_P2;Temp;Humidity;BMP_temperature;BMP_pressure;BME280_temperature;BME280_humidity;BME280_pressure;Samples;Min_cycle;Max_cycle;Signal;HPM_P1;HPM_P2
2021/10/01 00:00:20;;;;;;;5.22;1.20;;;;;;;11.33;69.01;101208.00;5062508;28;20043;-53
2021/10/01 00:02:46;;;;;;;3.60;1.17;;;;;;;11.32;68.70;101206.25;5056594;28;20612;-53
2021/10/01 00:05:13;;;;;;;6.65;1.48;;;;;;;11.31;69.81;101204.53;5062627;28;20114;-54
2021/10/01 00:07:39;;;;;;;3.65;1.42;;;;;;;11.29;69.77;101203.72;5064387;28;20063;-53
2021/10/01 00:10:07;;;;;;;3.38;1.60;;;;;;;11.30;69.01;101193.97;5064629;28;20044;-53
2021/10/01 00:12:33;;;;;;;5.40;1.58;;;;;;;11.26;69.55;101201.16;5064735;28;20063;-52
2021/10/01 00:15:00;;;;;;;3.92;1.30;;;;;;;11.20;69.95;101194.28;5064626;28;20052;-53
2021/10/01 00:17:27;;;;;;;4.00;1.48;;;;;;;11.07;69.96;101174.47;5061185;28;20048;-54
2021/10/01 00:19:53;;;;;;;4.60;1.63;;;;;;;11.13;70.63;101189.28;5062661;28;20044;-51
2021/10/01 00:22:20;;;;;;;4.72;1.33;;;;;;;11.11;70.81;101183.19;5066459;28;20045;-52
2021/10/01 00:24:47;;;;;;;4.55;1.27;;;;;;;11.09;71.50;101180.56;5065494;28;20044;-53
2021/10/01 00:27:14;;;;;;;3.22;1.60;;;;;;;11.07;71.51;101186.84;5063973;28;20423;-53
2021/10/01 00:29:40;;;;;;;5.32;1.30;;;;;;;11.03;71.77;101174.63;5063782;28;20070;-54
2021/10/01 00:32:07;;;;;;;5.88;1.58;;;;;;;11.02;71.84;101176.41;5065310;28;20047;-53
2021/10/01 00:34:33;;;;;;;6.40;1.45;;;;;;;10.99;71.81;101179.19;5064812;28;20063;-53
2021/10/01 00:37:00;;;;;;;3.67;1.48;;;;;;;10.96;71.99;101183.72;5066216;28;20048;-53
2021/10/01 00:39:27;;;;;;;4.15;1.52;;;;;;;10.95;72.80;101182.88;5064821;28;20522;-52
2021/10/01 00:41:53;;;;;;;2.75;1.17;;;;;;;10.96;73.31;101178.44;5064296;28;20037;-52
2021/10/01 00:44:20;;;;;;;4.43;1.42;;;;;;;10.95;72.83;101172.25;5059635;28;20346;-52
2021/10/01 00:46:46;;;;;;;4.35;1.65;;;;;;;10.90;72.45;101174.19;5063353;28;20378;-53
2021/10/01 00:49:12;;;;;;;2.92;1.40;;;;;;;10.88;72.88;101173.38;5066072;28;20432;-54
2021/10/01 00:51:40;;;;;;;7.93;1.50;;;;;;;10.82;72.56;101161.25;5064122;28;20521;-51
2021/10/01 00:54:09;;;;;;;4.68;1.73;;;;;;;10.77;72.81;101171.13;5062805;28;20052;-52
2021/10/01 00:56:35;;;;;;;5.22;1.50;;;;;;;10.72;73.08;101169.56;5064082;28;20048;-53
2021/10/01 00:59:02;;;;;;;4.90;1.77;;;;;;;10.68;73.75;101168.81;5065336;28;20049;-52
2021/10/01 01:01:29;;;;;;;4.78;1.80;;;;;;;10.61;74.01;101161.13;5065267;28;20048;-53
2021/10/01 01:04:00;;;;;;;6.13;1.75;;;;;;;10.60;74.64;101157.63;5056005;28;20137;-52
2021/10/01 01:06:45;;;;;;;4.32;1.40;;;;;;;10.56;74.96;101158.63;5055571;28;20048;-54
2021/10/01 01:09:30;;;;;;;5.85;1.50;;;;;;;10.38;75.28;101132.81;5053248;28;20099;-53
2021/10/01 01:12:01;;;;;;;3.95;1.42;;;;;;;10.43;75.71;101150.25;5064014;28;20124;-53
2021/10/01 01:14:42;;;;;;;2.97;1.48;;;;;;;10.41;75.84;101156.50;5054426;28;20068;-52
2021/10/01 01:17:19;;;;;;;5.88;1.50;;;;;;;10.37;76.02;101149.63;5055357;28;20384;-54
2021/10/01 01:20:04;;;;;;;4.97;1.60;;;;;;;10.38;76.27;101144.28;5056310;28;20056;-52
2021/10/01 01:22:40;;;;;;;2.55;1.23;;;;;;;10.35;75.77;101138.22;5053725;28;20056;-54
2021/10/01 01:25:16;;;;;;;3.75;1.40;;;;;;;10.26;75.18;101125.25;5065419;28;20390;-53
2021/10/01 01:27:50;;;;;;;4.07;1.73;;;;;;;10.32;75.53;101138.31;5056585;28;20045;-55
2021/10/01 01:30:23;;;;;;;6.30;1.92;;;;;;;10.30;75.88;101140.13;5054715;28;20049;-54
2021/10/01 01:32:53;;;;;;;4.50;1.70;;;;;;;10.27;76.31;101130.50;5054647;28;20037;-53
2021/10/01 01:35:23;;;;;;;5.68;1.42;;;;;;;10.24;76.79;101127.09;5056589;28;20049;-52
2021/10/01 01:37:53;;;;;;;;;;;;;;;10.16;77.32;101128.19;5055639;28;20045;-52
2021/10/01 01:40:23;;;;;;;4.18;1.73;;;;;;;10.11;77.43;101123.97;5061571;28;19927;-54
2021/10/01 01:42:53;;;;;;;2.78;1.33;;;;;;;9.96;78.00;101101.53;5059026;28;20931;-55
2021/10/01 01:45:26;;;;;;;3.15;1.50;;;;;;;10.02;78.32;101116.34;5062700;28;20044;-52
2021/10/01 01:47:54;;;;;;;6.95;1.73;;;;;;;9.99;78.43;101112.03;5053421;28;20586;-53
2021/10/01 01:50:23;;;;;;;3.78;1.40;;;;;;;9.96;78.73;101108.59;5062595;28;20525;-53
2021/10/01 01:52:52;;;;;;;4.75;1.40;;;;;;;9.92;79.14;101107.84;5064081;28;20045;-52
2021/10/01 01:55:19;;;;;;;3.80;1.58;;;;;;;9.93;79.74;101109.56;5058544;28;20056;-54
2021/10/01 01:57:49;;;;;;;6.90;1.42;;;;;;;9.79;80.30;101080.91;5065109;28;20047;-53
2021/10/01 02:00:16;;;;;;;4.18;1.50;;;;;;;9.90;80.41;101098.25;5056989;28;20496;-53
2021/10/01 02:02:44;;;;;;;3.17;1.80;;;;;;;9.87;80.51;101101.84;5054275;28;20047;-54
2021/10/01 02:05:11;;;;;;;6.03;1.90;;;;;;;9.82;80.68;101102.00;5054975;28;20045;-54
2021/10/01 02:07:40;;;;;;;4.15;1.35;;;;;;;9.79;80.87;101104.72;5060838;28;20524;-54
2021/10/01 02:10:10;;;;;;;6.05;1.63;;;;;;;9.76;80.98;101091.59;5058928;28;20049;-52
2021/10/01 02:12:38;;;;;;;4.25;1.60;;;;;;;9.74;81.37;101092.59;5060960;28;20303;-53
2021/10/01 02:15:05;;;;;;;4.07;1.70;;;;;;;9.73;81.64;101083.78;5062311;28;20052;-52
2021/10/01 02:17:35;;;;;;;4.65;1.92;;;;;;;9.70;81.85;101081.25;5055604;28;20413;-52
2021/10/01 02:20:03;;;;;;;5.18;1.70;;;;;;;9.70;82.28;101080.38;5053339;28;20044;-54
2021/10/01 02:22:31;;;;;;;5.45;1.80;;;;;;;9.67;82.60;101076.03;5063189;28;20058;-52
2021/10/01 02:24:57;;;;;;;5.95;1.92;;;;;;;9.57;83.31;101060.53;5061051;28;20093;-53
2021/10/01 02:27:34;;;;;;;6.70;2.00;;;;;;;9.66;83.35;101068.16;5058731;28;20055;-53
2021/10/01 02:30:09;;;;;;;4.93;1.80;;;;;;;9.63;83.27;101069.13;5058204;28;20139;-54
2021/10/01 02:32:42;;;;;;;7.20;2.65;;;;;;;9.63;83.04;101077.03;5063642;28;20041;-52
2021/10/01 02:35:09;;;;;;;4.38;2.05;;;;;;;9.60;83.56;101073.66;5060147;28;20402;-53
2021/10/01 02:37:37;;;;;;;2.45;1.77;;;;;;;9.58;83.41;101071.06;5058896;28;20067;-55
2021/10/01 02:40:06;;;;;;;4.57;2.10;;;;;;;9.55;83.27;101057.94;5061985;28;20055;-52
2021/10/01 02:42:32;;;;;;;4.63;2.40;;;;;;;9.48;83.76;101061.66;5059660;28;20055;-52
2021/10/01 02:44:59;;;;;;;5.75;1.80;;;;;;;9.42;84.48;101064.53;5062317;28;20502;-53
2021/10/01 02:47:32;;;;;;;4.78;2.08;;;;;;;9.37;84.49;101055.88;5047773;28;20051;-54
2021/10/01 02:50:00;;;;;;;7.13;2.45;;;;;;;9.34;84.71;101062.13;5061383;28;20048;-53
2021/10/01 02:52:33;;;;;;;4.85;1.92;;;;;;;9.33;85.14;101052.44;5064363;28;20543;-53
2021/10/01 02:55:12;;;;;;;4.93;2.38;;;;;;;9.29;85.02;101052.59;5057791;28;20071;-52
2021/10/01 02:57:46;;;;;;;5.22;2.30;;;;;;;9.26;85.10;101056.22;5056973;28;20135;-53
2021/10/01 03:00:13;;;;;;;4.57;2.22;;;;;;;9.22;85.34;101043.13;5058836;28;20040;-53
2021/10/01 03:02:43;;;;;;;4.20;2.10;;;;;;;9.14;85.40;101043.34;5056673;28;20046;-52
2021/10/01 03:05:12;;;;;;;6.57;2.08;;;;;;;9.05;85.99;101038.38;5062065;28;20502;-52
2021/10/01 03:07:42;;;;;;;3.08;1.77;;;;;;;8.98;86.58;101042.09;5060177;28;20037;-52
2021/10/01 03:10:11;;;;;;;3.30;1.85;;;;;;;8.92;86.84;101037.88;5060367;28;20048;-52
2021/10/01 03:12:40;;;;;;;5.43;2.00;;;;;;;8.89;87.53;101037.09;5064087;28;20075;-53
2021/10/01 03:15:10;;;;;;;3.42;1.90;;;;;;;8.91;87.94;101035.28;5062190;28;20052;-52
2021/10/01 03:17:39;;;;;;;4.38;2.10;;;;;;;8.93;87.66;101030.81;5065194;28;20075;-53
2021/10/01 03:20:08;;;;;;;6.90;2.10;;;;;;;8.94;87.39;101032.56;5066364;28;20059;-53
2021/10/01 03:22:38;;;;;;;5.13;1.92;;;;;;;8.94;87.69;101027.28;5066683;28;20048;-52
2021/10/01 03:25:06;;;;;;;2.40;1.52;;;;;;;8.92;87.34;101031.72;5067203;28;20056;-51
2021/10/01 03:27:33;;;;;;;4.80;2.10;;;;;;;8.92;87.46;101031.72;5065760;28;20421;-53
2021/10/01 03:30:04;;;;;;;3.97;1.77;;;;;;;8.92;87.28;101029.09;5066569;28;20066;-52
2021/10/01 03:32:30;;;;;;;5.35;2.00;;;;;;;8.92;87.33;101031.72;5066531;28;20048;-53
2021/10/01 03:35:01;;;;;;;6.55;1.85;;;;;;;8.92;86.92;101029.09;5065730;28;20123;-52
2021/10/01 03:37:28;;;;;;;5.88;1.92;;;;;;;8.77;87.01;101010.16;5064239;28;20063;-52
2021/10/01 03:40:00;;;;;;;5.45;1.80;;;;;;;8.89;87.44;101037.09;5066645;28;20054;-52
2021/10/01 03:42:28;;;;;;;4.78;1.60;;;;;;;8.83;87.03;101027.56;5061421;28;20048;-53
2021/10/01 03:44:54;;;;;;;3.20;1.80;;;;;;;8.78;87.34;101019.81;5066283;28;20075;-54
2021/10/01 03:47:21;;;;;;;3.92;1.77;;;;;;;8.75;87.32;101025.16;5058408;28;20055;-52
2021/10/01 03:49:47;;;;;;;4.85;2.20;;;;;;;8.73;87.22;101020.84;5065162;28;20052;-51
2021/10/01 03:52:14;;;;;;;4.45;1.90;;;;;;;8.68;87.48;101017.47;5066348;28;20045;-53
2021/10/01 03:54:44;;;;;;;4.53;1.90;;;;;;;8.66;87.61;101020.16;5064191;28;20044;-51
2021/10/01 03:57:11;;;;;;;5.57;2.20;;;;;;;8.64;87.87;101026.41;5065591;28;20055;-53
2021/10/01 03:59:37;;;;;;;2.90;1.60;;;;;;;8.59;87.91;101023.03;5065393;28;20079;-52
2021/10/01 04:02:04;;;;;;;3.28;1.95;;;;;;;8.48;88.27;101022.47;5065301;28;20044;-52
2021/10/01 04:04:31;;;;;;;4.15;2.00;;;;;;;8.41;88.49;101025.28;5065589;28;20074;-53
2021/10/01 04:06:58;;;;;;;3.05;1.85;;;;;;;8.39;89.05;101026.22;5063442;28;20429;-52
2021/10/01 04:09:25;;;;;;;4.95;2.42;;;;;;;8.35;89.11;101014.00;5064353;28;20052;-52
2021/10/01 04:11:53;;;;;;;4.18;2.10;;;;;;;8.31;89.09;101015.00;5066370;28;20284;-53
2021/10/01 04:14:21;;;;;;;4.50;2.22;;;;;;;8.27;89.55;101010.69;5064407;28;20367;-51
2021/10/01 04:16:48;;;;;;;7.38;2.42;;;;;;;8.23;89.67;101007.28;5066969;28;20082;-52
2021/10/01 04:19:15;;;;;;;3.30;2.00;;;;;;;8.20;89.98;101003.84;5065722;28;20055;-53
2021/10/01 04:22:01;;;;;;;7.15;2.20;;;;;;;8.14;89.76;100999.63;5064186;28;20461;-52
2021/10/01 04:24:28;;;;;;;4.50;1.83;;;;;;;8.16;90.02;101002.22;5066475;28;20053;-51
2021/10/01 04:26:54;;;;;;;5.88;2.70;;;;;;;8.10;90.27;100995.31;5060413;28;20426;-53
2021/10/01 04:29:21;;;;;;;4.72;2.30;;;;;;;8.07;90.62;100991.00;5063845;28;20537;-55
2021/10/01 04:31:47;;;;;;;5.35;2.30;;;;;;;8.07;90.75;100996.28;5065235;28;20044;-52
2021/10/01 04:34:14;;;;;;;5.45;2.58;;;;;;;8.04;90.91;100993.72;5063157;28;20047;-52
2021/10/01 04:36:40;;;;;;;5.95;2.20;;;;;;;8.03;90.94;100991.13;5051937;28;20055;-53
2021/10/01 04:39:07;;;;;;;3.92;2.67;;;;;;;8.03;91.00;100989.34;5063794;28;20402;-52
2021/10/01 04:41:33;;;;;;;4.60;3.05;;;;;;;8.02;90.85;100992.91;5065073;28;21007;-53
2021/10/01 04:44:00;;;;;;;4.30;2.50;;;;;;;8.00;91.22;100992.09;5062688;28;20036;-53
2021/10/01 04:46:27;;;;;;;4.57;2.63;;;;;;;7.99;91.28;100995.63;5056988;28;20055;-53
2021/10/01 04:48:55;;;;;;;5.03;2.58;;;;;;;7.97;91.16;100992.16;5063278;28;20045;-52
2021/10/01 04:51:22;;;;;;;5.45;2.90;;;;;;;7.86;91.56;100978.41;5064349;28;20049;-52
2021/10/01 04:53:48;;;;;;;5.57;3.00;;;;;;;7.97;91.63;100989.53;5062599;28;20512;-51
2021/10/01 04:56:17;;;;;;;6.28;2.60;;;;;;;7.97;91.33;100991.28;5068335;28;20048;-54
2021/10/01 04:58:44;;;;;;;4.57;2.63;;;;;;;7.95;91.59;100988.69;5063187;28;20054;-52
2021/10/01 05:01:10;;;;;;;4.65;2.72;;;;;;;7.94;91.94;100988.75;5061646;28;20048;-54
2021/10/01 05:03:37;;;;;;;5.00;2.70;;;;;;;7.96;91.80;100987.78;5059820;28;20129;-53
2021/10/01 05:06:04;;;;;;;5.43;3.25;;;;;;;7.95;91.78;100987.84;5059078;28;20052;-52
2021/10/01 05:08:31;;;;;;;6.32;2.72;;;;;;;7.96;91.71;100993.06;5057477;28;20049;-52
2021/10/01 05:10:57;;;;;;;4.15;2.97;;;;;;;7.96;92.28;100990.44;5058724;28;20048;-53
2021/10/01 05:13:24;;;;;;;4.53;2.60;;;;;;;7.97;91.75;100986.03;5063881;28;20052;-53
2021/10/01 05:15:50;;;;;;;4.35;2.85;;;;;;;8.00;91.78;100994.72;5060998;28;20123;-52
2021/10/01 05:18:18;;;;;;;5.95;2.80;;;;;;;8.02;91.57;100995.56;5055460;28;20379;-53
2021/10/01 05:20:44;;;;;;;4.55;3.10;;;;;;;8.03;91.54;100994.63;5061799;28;20387;-53
2021/10/01 05:23:11;;;;;;;4.88;2.70;;;;;;;8.04;91.16;100995.47;5061789;28;20047;-55
2021/10/01 05:25:40;;;;;;;10.25;2.60;;;;;;;8.03;91.26;101001.66;5059601;28;20044;-53
2021/10/01 05:28:06;;;;;;;7.63;2.90;;;;;;;8.01;91.39;101000.88;5059427;28;20080;-53
2021/10/01 05:30:33;;;;;;;5.95;2.90;;;;;;;8.00;91.48;101009.69;5058655;28;20044;-53
2021/10/01 05:33:05;;;;;;;6.18;3.75;;;;;;;8.00;91.83;101002.63;5068472;28;20044;-52
2021/10/01 05:35:34;;;;;;;6.35;2.88;;;;;;;8.01;91.63;100999.09;5066051;28;20052;-59
2021/10/01 05:38:00;;;;;;;8.75;2.80;;;;;;;8.03;91.30;101004.31;5068236;28;20481;-52
2021/10/01 05:40:27;;;;;;;5.88;3.20;;;;;;;7.99;91.61;101000.91;5066365;28;20052;-54
2021/10/01 05:42:53;;;;;;;7.00;3.50;;;;;;;8.05;91.61;101005.13;5063131;28;20059;-53
2021/10/01 05:45:20;;;;;;;9.05;3.00;;;;;;;8.06;91.70;101012.13;5054081;28;20052;-52
2021/10/01 05:47:47;;;;;;;7.22;3.00;;;;;;;8.05;91.86;101015.69;5051620;28;20055;-52
2021/10/01 05:50:15;;;;;;;5.70;3.10;;;;;;;8.04;91.80;101020.09;5061835;28;20055;-54
2021/10/01 05:55:09;;;;;;;4.20;2.80;;;;;;;8.07;92.37;101011.22;5065059;28;20498;-52
2021/10/01 05:57:36;;;;;;;4.80;2.67;;;;;;;8.12;92.57;101003.22;5061817;28;20043;-53
2021/10/01 06:00:05;;;;;;;6.85;3.00;;;;;;;8.19;92.63;101008.25;5062600;28;20048;-55
2021/10/01 06:02:33;;;;;;;7.00;3.00;;;;;;;8.26;91.77;100995.78;5063273;28;20096;-54
2021/10/01 06:05:00;;;;;;;15.23;2.97;;;;;;;8.31;91.51;100997.38;5057958;28;20044;-54
2021/10/01 06:07:26;;;;;;;6.38;3.00;;;;;;;8.37;91.52;101001.63;5062786;28;20053;-53
2021/10/01 06:09:53;;;;;;;5.38;2.90;;;;;;;8.43;91.03;100998.84;5062920;28;20129;-53
2021/10/01 06:12:19;;;;;;;12.50;3.60;;;;;;;8.53;90.51;100995.00;5061616;28;20048;-54
2021/10/01 06:14:46;;;;;;;6.28;3.10;;;;;;;8.62;89.92;100997.41;5073344;28;20232;-53
2021/10/01 06:17:12;;;;;;;4.18;2.63;;;;;;;8.69;90.21;100995.44;5066294;28;20071;-53
2021/10/01 06:19:42;;;;;;;5.68;3.47;;;;;;;8.77;89.36;100996.94;5064943;28;20051;-52
2021/10/01 06:22:10;;;;;;;6.32;2.75;;;;;;;8.90;89.48;100993.94;5062675;28;20040;-54
2021/10/01 06:24:37;;;;;;;5.85;3.20;;;;;;;9.04;89.14;100994.38;5061177;28;20140;-52
2021/10/01 06:27:05;;;;;;;8.68;3.17;;;;;;;9.14;88.44;101001.94;5064264;28;20049;-54
2021/10/01 06:29:32;;;;;;;4.35;2.97;;;;;;;9.24;88.08;100994.63;5039950;28;20529;-52
2021/10/01 06:31:59;;;;;;;6.00;3.25;;;;;;;9.29;87.30;101000.59;5059631;28;20040;-52
2021/10/01 06:34:25;;;;;;;7.55;3.25;;;;;;;9.33;86.66;100999.59;5055656;28;20044;-53
2021/10/01 06:36:52;;;;;;;10.65;3.75;;;;;;;9.38;85.69;101002.09;5055195;28;20426;-54
2021/10/01 06:39:18;;;;;;;6.38;3.17;;;;;;;9.42;85.77;100998.44;5063802;28;20036;-51
2021/10/01 06:41:45;;;;;;;10.90;3.63;;;;;;;9.27;84.20;100975.16;5063026;28;20055;-53
2021/10/01 06:44:17;;;;;;;9.82;3.47;;;;;;;9.34;85.71;100998.69;5065992;28;20095;-52
2021/10/01 06:46:52;;;;;;;7.50;2.97;;;;;;;9.36;85.61;101001.28;5054951;28;20379;-53
2021/10/01 07:23:01;;;;;;;4.65;3.03;;;;;;;10.32;80.44;100984.75;5056510;28;20561;-53
2021/10/01 07:45:29;;;;;;;11.27;4.35;;;;;;;11.13;76.54;100982.53;5061743;28;20063;-53
2021/10/01 08:20:19;;;;;;;20.80;5.78;;;;;;;12.36;68.29;100965.81;5061069;28;20044;-52
2021/10/01 08:22:45;;;;;;;8.95;4.35;;;;;;;12.34;68.21;100963.22;5065681;28;20051;-53
2021/10/01 08:25:12;;;;;;;7.70;4.30;;;;;;;12.36;68.48;100971.97;5067220;28;20047;-52
2021/10/01 08:27:40;;;;;;;8.02;4.53;;;;;;;12.44;67.70;100971.63;5066793;28;20049;-52
2021/10/01 08:30:08;;;;;;;7.57;4.28;;;;;;;12.54;68.75;100962.31;5061882;28;20052;-53
2021/10/01 08:32:35;;;;;;;8.07;4.15;;;;;;;12.62;67.03;100968.97;5061199;28;20051;-54
2021/10/01 08:35:03;;;;;;;9.27;4.30;;;;;;;12.71;66.31;100965.06;5061878;28;20047;-52
2021/10/01 08:37:29;;;;;;;9.02;4.63;;;;;;;12.97;66.62;100969.13;5064660;28;20508;-52
2021/10/01 08:39:56;;;;;;;6.20;4.28;;;;;;;13.23;64.65;100960.78;5064792;28;20056;-52
2021/10/01 08:42:23;;;;;;;9.13;4.63;;;;;;;13.58;62.15;100966.16;5062239;28;20088;-52
2021/10/01 08:44:49;;;;;;;8.23;4.30;;;;;;;13.70;62.21;100961.06;5062170;28;20068;-53
2021/10/01 08:47:17;;;;;;;7.10;4.05;;;;;;;13.83;61.27;100961.31;5059965;28;20041;-54
2021/10/01 08:49:50;;;;;;;7.38;4.00;;;;;;;14.01;59.62;100960.34;5065411;28;20036;-55
2021/10/01 08:52:18;;;;;;;8.63;4.25;;;;;;;14.19;60.14;100953.19;5060887;28;20048;-52
2021/10/01 08:54:44;;;;;;;8.43;3.80;;;;;;;14.48;59.95;100949.00;5061942;28;20243;-53
2021/10/01 08:57:11;;;;;;;10.73;3.90;;;;;;;14.75;58.63;100941.31;5062500;28;20098;-53
2021/10/01 08:59:38;;;;;;;5.57;3.78;;;;;;;14.88;58.32;100937.00;5064024;28;20060;-54
2021/10/01 09:02:04;;;;;;;8.18;3.47;;;;;;;15.06;57.04;100940.44;5061840;28;20369;-53
2021/10/01 09:04:31;;;;;;;7.03;3.63;;;;;;;15.07;56.90;100937.69;5063352;28;20076;-52
2021/10/01 09:06:59;;;;;;;6.88;3.75;;;;;;;15.06;56.89;100930.66;5061841;28;20044;-52
2021/10/01 09:09:37;;;;;;;6.43;4.10;;;;;;;15.03;57.20;100928.16;5062261;28;20055;-54
2021/10/01 09:12:04;;;;;;;7.90;4.18;;;;;;;14.80;58.43;100930.38;5056482;28;20056;-54
2021/10/01 09:14:41;;;;;;;7.00;4.47;;;;;;;14.71;58.33;100929.09;5065021;28;20509;-54
2021/10/01 09:17:13;;;;;;;5.75;3.78;;;;;;;14.77;58.43;100922.56;5057563;28;20060;-54
2021/10/01 09:19:41;;;;;;;7.53;4.10;;;;;;;14.97;56.94;100930.28;5057209;28;20510;-53
2021/10/01 09:22:07;;;;;;;5.20;3.33;;;;;;;15.01;57.70;100922.03;5056929;28;20059;-53
2021/10/01 09:24:41;;;;;;;7.38;4.05;;;;;;;15.22;57.79;100927.09;5064900;28;20116;-51
2021/10/01 09:27:09;;;;;;;6.88;3.38;;;;;;;15.36;56.47;100921.81;5060328;28;20044;-54
2021/10/01 09:29:37;;;;;;;5.10;3.38;;;;;;;15.49;56.50;100917.47;5066704;28;20628;-56
2021/10/01 09:32:16;;;;;;;9.38;3.75;;;;;;;15.55;55.91;100908.25;5055330;28;20052;-54
2021/10/01 09:34:47;;;;;;;6.30;3.30;;;;;;;15.62;56.02;100907.81;5057757;28;20075;-52
2021/10/01 09:37:26;;;;;;;7.22;3.58;;;;;;;15.89;54.66;100909.78;5064035;28;20044;-53
2021/10/01 09:39:57;;;;;;;10.25;3.60;;;;;;;16.33;53.26;100896.34;5059838;28;20053;-54
2021/10/01 09:42:27;;;;;;;6.55;2.90;;;;;;;16.52;51.79;100862.16;5062995;28;20052;-55
2021/10/01 09:45:01;;;;;;;5.53;2.60;;;;;;;16.89;50.78;100891.88;5058260;28;20477;-54
2021/10/01 09:47:31;;;;;;;6.72;2.50;;;;;;;17.11;49.87;100881.50;5059939;28;20055;-53
2021/10/01 09:50:00;;;;;;;5.47;2.67;;;;;;;17.17;50.02;100875.72;5060747;28;20102;-53
2021/10/01 09:52:39;;;;;;;8.10;2.83;;;;;;;17.66;48.94;100872.44;5060714;28;20048;-53
2021/10/01 09:55:07;;;;;;;4.20;2.10;;;;;;;18.03;48.12;100876.09;5062482;28;20055;-53
2021/10/01 09:57:38;;;;;;;9.52;2.88;;;;;;;18.47;47.03;100868.41;5064322;28;20474;-54
2021/10/01 10:00:07;;;;;;;8.50;2.75;;;;;;;18.89;45.58;100860.91;5059611;28;20052;-54
2021/10/01 10:02:37;;;;;;;6.82;2.85;;;;;;;19.06;44.70;100862.31;5045131;28;20063;-53
2021/10/01 10:05:04;;;;;;;4.22;2.08;;;;;;;18.86;44.82;100853.97;5062900;28;20086;-53
2021/10/01 10:07:38;;;;;;;6.40;2.17;;;;;;;18.85;45.02;100854.06;5060743;28;20875;-53
2021/10/01 10:10:08;;;;;;;4.65;1.92;;;;;;;19.06;43.64;100854.28;5063907;28;20044;-52
2021/10/01 10:12:37;;;;;;;4.65;1.60;;;;;;;19.15;43.44;100845.53;5060260;28;20049;-53
2021/10/01 10:15:10;;;;;;;6.93;2.17;;;;;;;19.17;44.63;100848.97;5063752;28;20052;-52
2021/10/01 10:17:45;;;;;;;4.50;1.80;;;;;;;19.41;43.12;100841.72;5064098;28;20056;-54
2021/10/01 10:20:12;;;;;;;3.83;1.90;;;;;;;19.07;43.83;100843.44;5058505;28;20051;-53
2021/10/01 10:22:39;;;;;;;5.32;1.60;;;;;;;19.39;43.10;100832.94;5063304;28;20044;-54
2021/10/01 10:25:05;;;;;;;2.40;1.58;;;;;;;19.72;42.88;100829.50;5064144;28;20049;-52
2021/10/01 10:27:32;;;;;;;5.70;1.65;;;;;;;19.69;42.62;100827.03;5059140;28;20059;-54
2021/10/01 10:29:59;;;;;;;2.33;1.40;;;;;;;19.62;42.58;100823.13;5055568;28;20044;-52
2021/10/01 10:32:31;;;;;;;3.88;1.67;;;;;;;19.78;42.64;100820.97;5062872;28;20303;-53
2021/10/01 10:35:06;;;;;;;4.72;1.65;;;;;;;19.83;42.20;100809.88;5061753;28;20569;-53
2021/10/01 10:37:42;;;;;;;3.97;1.52;;;;;;;20.12;41.48;100811.09;5064968;28;20048;-54
2021/10/01 10:40:18;;;;;;;2.58;1.50;;;;;;;20.28;40.97;100805.31;5061545;28;20506;-52
2021/10/01 10:42:49;;;;;;;3.65;1.80;;;;;;;20.44;40.54;100797.75;5069902;28;20488;-54
2021/10/01 10:45:20;;;;;;;5.45;1.80;;;;;;;20.77;39.59;100798.66;5060676;28;20047;-55
2021/10/01 10:48:07;;;;;;;4.25;1.40;;;;;;;20.99;38.56;100785.09;5057360;28;20056;-53
2021/10/01 10:50:40;;;;;;;3.70;1.45;;;;;;;21.34;38.13;100784.81;5059994;28;20060;-53
2021/10/01 10:53:17;;;;;;;6.63;1.67;;;;;;;21.47;38.09;100777.38;5062752;28;20055;-53
2021/10/01 10:55:56;;;;;;;3.55;1.30;;;;;;;21.91;37.38;100762.69;5060521;28;20050;-54
2021/10/01 10:58:23;;;;;;;6.22;1.63;;;;;;;22.44;35.61;100767.88;5061716;28;20051;-55
2021/10/01 11:01:25;;;;;;;3.67;1.50;;;;;;;22.57;36.23;100763.06;5049172;28;20044;-52
2021/10/01 11:04:18;;;;;;;2.80;1.48;;;;;;;23.04;35.22;100749.75;5063048;28;20053;-54
2021/10/01 11:06:44;;;;;;;4.80;1.58;;;;;;;23.28;34.22;100741.19;5058632;28;20045;-54
2021/10/01 11:09:14;;;;;;;3.97;2.38;;;;;;;23.44;34.13;100742.31;5053319;28;20045;-53
2021/10/01 11:11:45;;;;;;;5.85;1.75;;;;;;;23.81;33.54;100740.63;5059104;28;20042;-54
2021/10/01 11:14:14;;;;;;;4.80;1.55;;;;;;;23.97;33.57;100732.72;5046959;28;20044;-54
2021/10/01 11:16:45;;;;;;;5.03;2.43;;;;;;;24.12;32.42;100740.19;5055970;28;20044;-54
2021/10/01 11:19:12;;;;;;;4.30;1.80;;;;;;;24.32;32.98;100734.69;5052903;28;20060;-53
2021/10/01 11:21:43;;;;;;;6.15;1.30;;;;;;;24.37;31.71;100730.53;5060576;28;20075;-55
2021/10/01 11:24:13;;;;;;;2.45;0.98;;;;;;;24.10;32.91;100733.22;5056173;28;20063;-52
2021/10/01 11:26:44;;;;;;;3.42;1.35;;;;;;;24.13;32.78;100731.06;5056876;28;20063;-54
2021/10/01 11:29:25;;;;;;;2.38;1.60;;;;;;;24.20;32.32;100714.25;5063734;28;20048;-54
2021/10/01 11:31:57;;;;;;;4.57;1.60;;;;;;;23.66;32.68;100721.34;5057310;28;20040;-53
2021/10/01 11:34:35;;;;;;;3.53;0.95;;;;;;;23.21;31.72;100711.19;5059076;28;20506;-55
2021/10/01 11:37:02;;;;;;;5.63;1.60;;;;;;;23.05;33.31;100705.53;5059746;28;20501;-54
2021/10/01 11:39:34;;;;;;;3.22;1.45;;;;;;;23.08;33.54;100705.25;5062220;28;20059;-54
2021/10/01 11:42:01;;;;;;;3.03;1.65;;;;;;;22.90;34.15;100701.56;5062657;28;20728;-53
2021/10/01 11:44:27;;;;;;;4.63;1.42;;;;;;;22.90;34.29;100698.88;5058688;28;20087;-54
2021/10/01 11:46:55;;;;;;;2.53;1.13;;;;;;;22.25;34.90;100697.69;5065862;28;20521;-54
2021/10/01 11:49:30;;;;;;;5.05;1.50;;;;;;;21.91;34.94;100700.69;5065573;28;20105;-54
2021/10/01 11:52:04;;;;;;;2.90;1.23;;;;;;;22.09;34.56;100691.97;5059089;28;20047;-54
2021/10/01 11:54:31;;;;;;;3.55;1.40;;;;;;;21.81;34.84;100689.03;5062583;28;20081;-53
2021/10/01 11:57:00;;;;;;;3.35;1.70;;;;;;;21.91;34.31;100689.91;5067635;28;20045;-53
2021/10/01 11:59:50;;;;;;;4.30;2.03;;;;;;;21.63;34.69;100679.88;5066168;28;20048;-54
2021/10/01 12:02:37;;;;;;;4.75;1.80;;;;;;;21.02;36.21;100682.50;5063595;28;20044;-53
2021/10/01 12:05:21;;;;;;;4.85;1.80;;;;;;;21.33;36.04;100678.91;5052133;28;20086;-53
2021/10/01 12:07:51;;;;;;;5.85;1.80;;;;;;;21.64;35.46;100668.13;5062970;28;20445;-53
2021/10/01 12:10:18;;;;;;;2.67;1.40;;;;;;;22.19;34.27;100663.19;5065023;28;20458;-55
2021/10/01 12:13:22;;;;;;;2.55;1.20;;;;;;;23.22;32.95;100658.00;5066084;28;20519;-53
2021/10/01 12:15:53;;;;;;;4.20;1.63;;;;;;;23.60;31.90;100654.34;5017884;28;20044;-54
2021/10/01 12:18:38;;;;;;;5.80;2.15;;;;;;;23.93;30.92;100642.91;5064046;28;20553;-55
2021/10/01 12:21:11;;;;;;;4.60;1.77;;;;;;;24.10;31.20;100635.81;5065551;28;20075;-53
2021/10/01 12:24:06;;;;;;;3.22;1.60;;;;;;;24.19;31.67;100629.50;5064206;28;20044;-53
2021/10/01 12:26:35;;;;;;;4.05;1.38;;;;;;;24.42;30.47;100627.19;5062452;28;20056;-53
2021/10/01 12:29:25;;;;;;;3.20;1.40;;;;;;;24.79;29.70;100618.88;5060129;28;20052;-52
2021/10/01 12:32:02;;;;;;;3.97;1.13;;;;;;;24.79;29.97;100616.16;5056428;28;20074;-54
2021/10/01 12:34:33;;;;;;;2.33;1.42;;;;;;;25.22;28.63;100614.44;5063337;28;20125;-53
2021/10/01 12:37:12;;;;;;;4.55;1.48;;;;;;;25.55;28.44;100610.03;5062058;28;20716;-53
2021/10/01 12:39:41;;;;;;;4.95;1.85;;;;;;;25.91;28.10;100614.25;5066042;28;20504;-52
2021/10/01 12:42:15;;;;;;;3.63;1.23;;;;;;;26.13;27.53;100610.91;5061927;28;20419;-53
2021/10/01 12:44:43;;;;;;;3.25;1.30;;;;;;;26.27;27.10;100603.13;5057220;28;20052;-52
2021/10/01 12:47:16;;;;;;;3.85;1.58;;;;;;;26.28;27.91;100597.53;5064915;28;20055;-52
2021/10/01 12:49:55;;;;;;;3.30;1.45;;;;;;;26.21;27.48;100583.78;5064280;28;20055;-54
2021/10/01 12:52:25;;;;;;;4.13;1.87;;;;;;;26.55;27.50;100582.81;5065333;28;20044;-53
2021/10/01 12:54:58;;;;;;;3.20;1.35;;;;;;;27.13;27.26;100581.72;5058047;28;20053;-53
2021/10/01 12:57:28;;;;;;;2.03;1.42;;;;;;;27.40;26.37;100578.53;5061431;28;20062;-52
2021/10/01 12:59:57;;;;;;;3.97;1.20;;;;;;;27.52;25.44;100560.84;5062514;28;20078;-56
2021/10/01 13:02:34;;;;;;;1.63;0.80;;;;;;;27.47;25.67;100567.81;5063470;28;20071;-54
2021/10/01 13:05:05;;;;;;;1.13;0.77;;;;;;;27.01;26.45;100561.38;5059739;28;20405;-53
2021/10/01 13:07:33;;;;;;;1.55;0.80;;;;;;;26.95;26.62;100557.47;5064112;28;20409;-53
2021/10/01 13:10:15;;;;;;;3.17;0.85;;;;;;;27.51;26.58;100545.53;5062701;28;20104;-52